Time;durP1;ratioP1;P1;durP2;ratioP2;P2;SDS_P1;SDS_P2;PMS_P1;PMS_P2;Temp;Humidity;BMP_temperature;BMP_pressure;BME280_temperature;BME280_humidity;BME280_pressure;Samples;Min_cycle;Max_cycle;Signal;HPM_P1;HPM_P2
2023/12/20 00:00:43;;;;;;;23.37;16.47;;;8.90;99.90;;;;;;4982611;28;20542;-77
2023/12/20 00:03:10;;;;;;;23.63;15.17;;;8.90;99.90;;;;;;4974726;28;20211;-76
2023/12/20 00:05:41;;;;;;;21.00;15.60;;;8.90;99.90;;;;;;4979047;28;20193;-76
2023/12/20 00:08:08;;;;;;;21.20;14.20;;;8.80;99.90;;;;;;4969658;28;20212;-76
2023/12/20 00:10:35;;;;;;;22.07;14.30;;;8.80;99.90;;;;;;4993955;28;20696;-76
2023/12/20 00:13:04;;;;;;;22.17;14.73;;;8.80;99.90;;;;;;5012233;28;20207;-77
2023/12/20 00:15:32;;;;;;;22.10;13.87;;;8.90;99.90;;;;;;5011868;28;20207;-77
2023/12/20 00:17:59;;;;;;;23.50;16.13;;;8.80;99.90;;;;;;4989709;28;20238;-76
2023/12/20 00:20:26;;;;;;;19.37;14.40;;;8.80;99.90;;;;;;5011373;28;20192;-76
2023/12/20 00:22:57;;;;;;;20.90;14.37;;;8.70;99.90;;;;;;4990477;28;20207;-76
2023/12/20 00:25:24;;;;;;;21.17;12.57;;;8.70;99.90;;;;;;4998199;28;20195;-77
2023/12/20 00:27:52;;;;;;;18.47;11.97;;;8.60;99.90;;;;;;4998606;28;20224;-76
2023/12/20 00:30:21;;;;;;;15.83;10.93;;;8.60;99.90;;;;;;4989870;28;20227;-76
2023/12/20 00:32:48;;;;;;;17.43;11.53;;;8.60;99.90;;;;;;5008580;28;20563;-76
2023/12/20 00:35:16;;;;;;;14.70;9.90;;;8.50;99.90;;;;;;4996179;28;20202;-76
2023/12/20 00:37:44;;;;;;;14.13;8.40;;;8.50;99.90;;;;;;4996389;28;20226;-76
2023/12/20 00:40:12;;;;;;;13.37;8.93;;;8.40;99.90;;;;;;4987393;28;20200;-76
2023/12/20 00:42:39;;;;;;;12.00;8.03;;;8.40;99.90;;;;;;4989395;28;20205;-77
2023/12/20 00:45:14;;;;;;;12.83;7.70;;;8.40;99.90;;;;;;5003093;28;20547;-77
2023/12/20 00:47:43;;;;;;;13.80;8.43;;;8.30;99.90;;;;;;4988791;28;20677;-77
2023/12/20 00:50:10;;;;;;;12.00;7.87;;;8.30;99.90;;;;;;5015369;28;20203;-76
2023/12/20 00:52:38;;;;;;;10.13;7.20;;;8.30;99.90;;;;;;4997201;28;20207;-77
2023/12/20 00:55:06;;;;;;;11.87;7.43;;;8.20;99.90;;;;;;5015388;28;20180;-76
2023/12/20 00:57:33;;;;;;;13.70;7.37;;;8.30;99.90;;;;;;5013165;28;20231;-76
2023/12/20 01:00:01;;;;;;;13.33;7.63;;;8.20;99.90;;;;;;4997145;28;20200;-77
2023/12/20 01:02:28;;;;;;;11.53;6.77;;;8.30;99.90;;;;;;4996241;28;20229;-77
2023/12/20 01:04:57;;;;;;;12.10;7.43;;;8.20;99.90;;;;;;4993830;28;20204;-76
2023/12/20 01:07:25;;;;;;;10.40;6.43;;;8.20;99.90;;;;;;4992637;28;20215;-76
2023/12/20 01:09:52;;;;;;;11.73;7.07;;;8.30;99.90;;;;;;4995672;28;20192;-76
2023/12/20 01:12:20;;;;;;;10.43;7.93;;;8.20;99.90;;;;;;5005714;28;20512;-76
2023/12/20 01:14:47;;;;;;;10.73;6.73;;;8.20;99.90;;;;;;4986820;28;20577;-77
2023/12/20 01:17:15;;;;;;;11.00;6.57;;;8.20;99.90;;;;;;5012151;28;20203;-76
2023/12/20 01:19:42;;;;;;;14.93;7.27;;;8.20;99.90;;;;;;4977792;28;20220;-77
2023/12/20 01:22:11;;;;;;;14.10;6.93;;;8.20;99.90;;;;;;4993830;28;20662;-76
2023/12/20 01:24:38;;;;;;;9.27;6.93;;;8.20;99.90;;;;;;4995230;28;20187;-76
2023/12/20 01:27:06;;;;;;;12.77;8.23;;;8.20;99.90;;;;;;4996420;28;20211;-76
2023/12/20 01:29:33;;;;;;;11.67;7.27;;;8.10;99.90;;;;;;4997049;28;20203;-77
2023/12/20 01:32:00;;;;;;;10.83;7.03;;;8.10;99.90;;;;;;5014067;28;20210;-76
2023/12/20 01:34:28;;;;;;;13.53;7.33;;;8.10;99.90;;;;;;4996142;28;20203;-76
2023/12/20 01:36:55;;;;;;;20.07;7.97;;;8.10;99.90;;;;;;4996612;28;20215;-76
2023/12/20 01:39:24;;;;;;;12.40;7.20;;;8.10;99.90;;;;;;5012994;28;20223;-77
2023/12/20 01:41:51;;;;;;;11.37;6.93;;;8.10;99.90;;;;;;4996320;28;20200;-76
2023/12/20 01:44:29;;;;;;;12.73;7.27;;;8.00;99.90;;;;;;4997008;28;20211;-76
2023/12/20 01:46:57;;;;;;;10.07;5.93;;;8.00;99.90;;;;;;5004821;28;20218;-75
2023/12/20 01:49:25;;;;;;;10.27;6.40;;;8.00;99.90;;;;;;4993109;28;20228;-77
2023/12/20 01:51:53;;;;;;;13.00;6.27;;;7.90;99.90;;;;;;4993070;28;20228;-76
2023/12/20 01:54:21;;;;;;;11.27;6.07;;;7.90;99.90;;;;;;4992949;28;20208;-77
2023/12/20 01:56:51;;;;;;;14.33;6.13;;;8.00;99.90;;;;;;4989834;28;20208;-76
2023/12/20 01:59:21;;;;;;;16.93;6.47;;;7.90;99.90;;;;;;4996037;28;20219;-76
2023/12/20 02:01:48;;;;;;;9.33;4.90;;;7.90;99.90;;;;;;4995140;28;20208;-76
2023/12/20 02:04:17;;;;;;;9.90;6.03;;;7.90;99.90;;;;;;5007525;28;20185;-76
2023/12/20 02:06:47;;;;;;;12.07;5.80;;;7.90;99.90;;;;;;4994491;28;20235;-77
2023/12/20 02:09:15;;;;;;;10.73;5.37;;;7.90;99.90;;;;;;5000896;28;20215;-76
2023/12/20 02:11:43;;;;;;;9.17;5.53;;;7.80;99.90;;;;;;4995026;28;20211;-76
2023/12/20 02:14:12;;;;;;;10.17;6.40;;;7.90;99.90;;;;;;5013800;28;20180;-77
2023/12/20 02:16:39;;;;;;;15.47;6.03;;;7.80;99.90;;;;;;4991539;28;20217;-76
2023/12/20 02:19:13;;;;;;;11.20;5.63;;;7.80;99.90;;;;;;5003947;28;20212;-76
2023/12/20 02:21:42;;;;;;;10.47;5.73;;;7.70;99.90;;;;;;4992092;28;20199;-76
2023/12/20 02:24:10;;;;;;;12.73;6.53;;;7.70;99.90;;;;;;4998455;28;20195;-77
2023/12/20 02:26:37;;;;;;;12.43;5.67;;;7.80;99.90;;;;;;4995183;28;20211;-76
2023/12/20 02:29:04;;;;;;;11.90;5.70;;;7.70;99.90;;;;;;4989109;28;20222;-76
2023/12/20 02:31:32;;;;;;;12.17;5.63;;;7.80;99.90;;;;;;4992714;28;20211;-76
2023/12/20 02:33:59;;;;;;;13.67;6.67;;;7.70;99.90;;;;;;4992546;28;20204;-76
2023/12/20 02:36:27;;;;;;;11.57;5.83;;;7.60;99.90;;;;;;4993497;28;20200;-76
2023/12/20 02:38:55;;;;;;;12.50;5.90;;;7.60;99.90;;;;;;5009053;28;20223;-76
2023/12/20 02:41:23;;;;;;;10.80;5.40;;;7.60;99.90;;;;;;4994729;28;20539;-76
2023/12/20 02:43:50;;;;;;;9.53;4.87;;;7.70;99.90;;;;;;5006782;28;20192;-76
2023/12/20 02:46:19;;;;;;;11.33;5.57;;;7.60;99.90;;;;;;4993336;28;20676;-76
2023/12/20 02:48:47;;;;;;;14.97;5.57;;;7.60;99.90;;;;;;4994911;28;20235;-76
2023/12/20 02:51:15;;;;;;;13.30;5.30;;;7.70;99.90;;;;;;5009818;28;20689;-76
2023/12/20 02:53:42;;;;;;;14.23;5.50;;;7.70;99.90;;;;;;4992353;28;20200;-76
2023/12/20 02:56:11;;;;;;;12.17;5.60;;;7.70;99.90;;;;;;5003841;28;20766;-76
2023/12/20 02:58:39;;;;;;;9.87;5.30;;;7.70;99.90;;;;;;4992425;28;20281;-76
2023/12/20 03:01:06;;;;;;;9.63;5.73;;;7.60;99.90;;;;;;4991252;28;20204;-76
2023/12/20 03:03:33;;;;;;;12.43;6.17;;;7.60;99.90;;;;;;5010058;28;20276;-76
2023/12/20 03:06:01;;;;;;;13.70;7.40;;;7.70;99.90;;;;;;4989370;28;20207;-77
2023/12/20 03:08:28;;;;;;;14.20;6.70;;;7.60;99.90;;;;;;5007793;28;20234;-76
2023/12/20 03:10:56;;;;;;;16.17;7.30;;;7.60;99.90;;;;;;5008168;28;20195;-76
2023/12/20 03:13:24;;;;;;;18.03;7.60;;;7.50;99.90;;;;;;5002951;28;20190;-76
2023/12/20 03:15:52;;;;;;;15.60;7.53;;;7.60;99.90;;;;;;4992113;28;20708;-76
2023/12/20 03:18:19;;;;;;;13.20;7.27;;;7.60;99.90;;;;;;5007302;28;20215;-76
2023/12/20 03:20:49;;;;;;;13.23;7.23;;;7.60;99.90;;;;;;4992215;28;20205;-76
2023/12/20 03:23:17;;;;;;;18.10;8.20;;;7.50;99.90;;;;;;4993849;28;20207;-76
2023/12/20 03:25:44;;;;;;;13.90;7.43;;;7.60;99.90;;;;;;5011513;28;20196;-75
2023/12/20 03:28:12;;;;;;;16.33;8.13;;;7.50;99.90;;;;;;5004462;28;20204;-76
2023/12/20 03:30:40;;;;;;;15.53;7.33;;;7.50;99.90;;;;;;5003292;28;20202;-74
2023/12/20 03:33:08;;;;;;;13.30;7.10;;;7.50;99.90;;;;;;5004460;28;20203;-76
2023/12/20 03:35:36;;;;;;;15.60;7.90;;;7.50;99.90;;;;;;5008117;28;20647;-76
2023/12/20 03:38:03;;;;;;;16.13;8.77;;;7.40;99.90;;;;;;4991945;28;20222;-76
2023/12/20 03:40:31;;;;;;;12.50;8.13;;;7.50;99.90;;;;;;4991972;28;20207;-76
2023/12/20 03:42:58;;;;;;;13.23;8.13;;;7.40;99.90;;;;;;4988441;28;20199;-76
2023/12/20 03:45:26;;;;;;;14.80;9.13;;;7.50;99.90;;;;;;5010184;28;20196;-76
2023/12/20 03:47:56;;;;;;;15.07;9.50;;;7.50;99.90;;;;;;5008062;28;20712;-76
2023/12/20 03:50:24;;;;;;;18.97;8.83;;;7.40;99.90;;;;;;5007504;28;20196;-76
2023/12/20 03:52:51;;;;;;;14.57;8.20;;;7.30;99.90;;;;;;5003382;28;20199;-76
2023/12/20 03:55:19;;;;;;;16.63;8.93;;;7.20;99.90;;;;;;4992906;28;20202;-76
2023/12/20 03:57:46;;;;;;;21.73;8.50;;;7.30;99.90;;;;;;4993216;28;20222;-76
2023/12/20 04:00:14;;;;;;;14.10;6.80;;;7.20;99.90;;;;;;5008144;28;20200;-76
2023/12/20 04:02:42;;;;;;;13.63;6.90;;;7.10;99.90;;;;;;4989717;28;20207;-75
2023/12/20 04:05:11;;;;;;;13.40;6.00;;;7.10;99.90;;;;;;5005478;28;20212;-76
2023/12/20 04:07:39;;;;;;;16.83;6.67;;;6.90;99.90;;;;;;4999729;28;20232;-76
2023/12/20 04:10:08;;;;;;;10.20;5.57;;;7.00;99.90;;;;;;5005486;28;20195;-76
2023/12/20 04:12:35;;;;;;;11.40;6.17;;;7.00;99.90;;;;;;4998524;28;20206;-76
2023/12/20 04:15:08;;;;;;;15.63;5.93;;;6.90;99.90;;;;;;5006801;28;20214;-76
2023/12/20 04:17:36;;;;;;;10.83;5.87;;;6.90;99.90;;;;;;4984914;28;20223;-76
2023/12/20 04:20:05;;;;;;;14.20;6.03;;;6.80;99.90;;;;;;5003132;28;20199;-76
2023/12/20 04:22:33;;;;;;;13.30;5.60;;;6.80;99.90;;;;;;5013345;28;20210;-76
2023/12/20 04:25:01;;;;;;;12.70;6.10;;;6.80;99.90;;;;;;4991531;28;20195;-76
2023/12/20 04:27:28;;;;;;;12.17;5.83;;;6.90;99.90;;;;;;5015018;28;20222;-76
2023/12/20 04:29:55;;;;;;;12.30;5.27;;;6.80;99.90;;;;;;5014779;28;20183;-76
2023/12/20 04:32:23;;;;;;;17.53;5.47;;;6.90;99.90;;;;;;4996732;28;20209;-76
2023/12/20 04:34:50;;;;;;;16.20;5.60;;;6.80;99.90;;;;;;5013696;28;20195;-75
2023/12/20 04:37:17;;;;;;;8.20;4.87;;;6.80;99.90;;;;;;5000423;28;20197;-76
2023/12/20 04:39:46;;;;;;;14.03;6.53;;;6.70;99.90;;;;;;5006449;28;20191;-76
2023/12/20 04:42:14;;;;;;;13.70;6.33;;;6.80;99.90;;;;;;4996089;28;20207;-76
2023/12/20 04:44:41;;;;;;;15.13;6.50;;;6.80;99.90;;;;;;4989002;28;20569;-76
2023/12/20 04:47:08;;;;;;;12.90;6.27;;;6.80;99.90;;;;;;5013411;28;20661;-76
2023/12/20 04:49:36;;;;;;;15.10;6.03;;;6.90;99.90;;;;;;5005187;28;20194;-76
2023/12/20 04:52:03;;;;;;;14.10;6.47;;;6.90;99.90;;;;;;5011492;28;20193;-76
2023/12/20 04:54:31;;;;;;;19.87;7.13;;;6.80;99.90;;;;;;5000253;28;20211;-77
2023/12/20 04:57:00;;;;;;;16.50;7.60;;;6.80;99.90;;;;;;4993191;28;20212;-76
2023/12/20 04:59:27;;;;;;;18.60;6.70;;;6.80;99.90;;;;;;5003276;28;20210;-77
2023/12/20 05:01:54;;;;;;;15.43;6.80;;;6.90;99.90;;;;;;4996959;28;20202;-76
2023/12/20 05:04:22;;;;;;;17.87;7.73;;;6.90;99.90;;;;;;4996233;28;20202;-76
2023/12/20 05:06:49;;;;;;;16.47;6.77;;;6.90;99.90;;;;;;4989798;28;20202;-76
2023/12/20 05:09:17;;;;;;;16.90;7.70;;;6.90;99.90;;;;;;4996352;28;20219;-76
2023/12/20 05:11:44;;;;;;;9.63;7.10;;;6.90;99.90;;;;;;5012916;28;20208;-76
2023/12/20 05:14:13;;;;;;;15.20;6.73;;;7.00;99.90;;;;;;4995672;28;20287;-74
2023/12/20 05:16:41;;;;;;;14.60;7.23;;;7.00;99.90;;;;;;5012080;28;20202;-76
2023/12/20 05:19:08;;;;;;;17.30;8.13;;;6.90;99.90;;;;;;5009858;28;20229;-76
2023/12/20 05:21:35;;;;;;;15.37;7.83;;;6.90;99.90;;;;;;5009334;28;20217;-76
2023/12/20 05:24:03;;;;;;;18.27;7.60;;;6.90;99.90;;;;;;5011707;28;20199;-76
2023/12/20 05:26:30;;;;;;;13.37;8.20;;;6.90;99.90;;;;;;4985524;28;20202;-76
2023/12/20 05:28:58;;;;;;;13.20;7.17;;;6.80;99.90;;;;;;4983356;28;20225;-76
2023/12/20 05:31:26;;;;;;;11.80;6.70;;;6.80;99.90;;;;;;4983871;28;20202;-76
2023/12/20 05:33:54;;;;;;;15.87;8.30;;;6.90;99.90;;;;;;4981008;28;20566;-76
2023/12/20 05:36:21;;;;;;;16.83;8.50;;;6.90;99.90;;;;;;4986089;28;20205;-77
2023/12/20 05:38:48;;;;;;;11.93;7.00;;;6.80;99.90;;;;;;5013735;28;20735;-76
2023/12/20 05:41:16;;;;;;;13.80;6.83;;;6.80;99.90;;;;;;4992619;28;20197;-76
2023/12/20 05:43:43;;;;;;;17.23;7.17;;;6.80;99.90;;;;;;5007101;28;20205;-76
2023/12/20 05:46:12;;;;;;;19.20;7.87;;;6.80;99.90;;;;;;4996107;28;20207;-76
2023/12/20 05:48:40;;;;;;;22.10;9.30;;;6.80;99.90;;;;;;5013695;28;20229;-76
2023/12/20 05:51:08;;;;;;;15.40;8.43;;;6.80;99.90;;;;;;5032026;23;20228;-75
2023/12/20 05:53:35;;;;;;;16.57;7.37;;;6.80;99.90;;;;;;5030674;28;20214;-75
2023/12/20 05:56:02;;;;;;;15.03;8.23;;;6.70;99.90;;;;;;5047773;28;20194;-75
2023/12/20 05:58:30;;;;;;;13.47;7.30;;;6.70;99.90;;;;;;5040979;28;20209;-75
2023/12/20 06:00:57;;;;;;;17.67;7.07;;;6.70;99.90;;;;;;5014855;28;20730;-75
2023/12/20 06:03:25;;;;;;;18.00;7.87;;;6.70;99.90;;;;;;4996640;28;20210;-75
2023/12/20 06:05:53;;;;;;;14.73;7.40;;;6.70;99.90;;;;;;5002660;28;20199;-75
2023/12/20 06:08:21;;;;;;;14.17;6.60;;;6.70;99.90;;;;;;5017061;28;20190;-74
2023/12/20 06:10:48;;;;;;;14.53;6.93;;;6.70;99.90;;;;;;4997885;28;20232;-74
2023/12/20 06:13:15;;;;;;;16.93;6.40;;;6.70;99.90;;;;;;5015788;28;20212;-75
2023/12/20 06:15:43;;;;;;;14.73;6.83;;;6.70;99.90;;;;;;5033574;28;20200;-75
2023/12/20 06:18:10;;;;;;;13.47;6.90;;;6.70;99.90;;;;;;5015498;28;20545;-75
2023/12/20 06:20:38;;;;;;;17.33;6.67;;;6.70;99.90;;;;;;5012530;28;20233;-74
2023/12/20 06:23:06;;;;;;;13.53;7.97;;;6.70;99.90;;;;;;5028195;28;20200;-76
2023/12/20 06:25:34;;;;;;;17.93;6.70;;;6.80;99.90;;;;;;5004070;28;20201;-76
2023/12/20 06:28:02;;;;;;;19.00;7.10;;;6.80;99.90;;;;;;4995885;28;20248;-75
2023/12/20 06:30:32;;;;;;;14.83;6.77;;;6.90;99.90;;;;;;5013096;28;20224;-75
2023/12/20 06:32:59;;;;;;;16.30;7.00;;;6.80;99.90;;;;;;5014290;28;20214;-75
2023/12/20 06:35:27;;;;;;;15.73;7.27;;;6.90;99.90;;;;;;5005584;28;20208;-78
2023/12/20 06:37:54;;;;;;;12.50;5.90;;;6.80;99.90;;;;;;5018974;28;20189;-75
2023/12/20 06:40:25;;;;;;;11.97;6.73;;;6.80;99.90;;;;;;5023243;28;20225;-75
2023/12/20 06:42:53;;;;;;;16.07;6.30;;;6.80;99.90;;;;;;5002832;28;20682;-75
2023/12/20 06:45:38;;;;;;;16.73;6.87;;;6.80;99.90;;;;;;5018556;28;20193;-75
2023/12/20 06:48:53;;;;;;;15.03;6.77;;;6.80;99.90;;;;;;5025438;28;20201;-75
2023/12/20 06:51:31;;;;;;;19.57;6.00;;;6.90;99.90;;;;;;5002533;28;20233;-75
2023/12/20 06:53:59;;;;;;;16.87;6.70;;;6.90;99.90;;;;;;5025086;28;20197;-75
2023/12/20 06:56:28;;;;;;;15.10;6.97;;;6.90;99.90;;;;;;5032800;28;20197;-75
2023/12/20 07:02:53;;;;;;;13.10;6.70;;;6.90;99.90;;;;;;5019216;28;20184;-76
2023/12/20 07:05:46;;;;;;;14.47;7.43;;;6.90;99.90;;;;;;4994760;28;20201;-76
2023/12/20 07:08:15;;;;;;;16.07;7.90;;;6.90;99.90;;;;;;5019423;28;20201;-75
2023/12/20 07:10:42;;;;;;;18.93;8.13;;;7.00;99.90;;;;;;5014484;28;20223;-75
2023/12/20 07:13:12;;;;;;;19.80;7.77;;;6.90;99.90;;;;;;5013010;28;20203;-75
2023/12/20 07:19:27;;;;;;;15.07;7.33;;;6.90;99.90;;;;;;5034375;28;20570;-75
2023/12/20 07:22:17;;;;;;;14.90;8.50;;;6.90;99.90;;;;;;5001879;28;20193;-76
2023/12/20 07:24:45;;;;;;;12.70;8.00;;;6.90;99.90;;;;;;5015285;28;20202;-76
2023/12/20 07:27:13;;;;;;;18.33;7.03;;;6.90;99.90;;;;;;5017498;28;20194;-75
2023/12/20 07:29:42;;;;;;;11.33;7.07;;;7.00;99.90;;;;;;5004216;28;20225;-75
2023/12/20 07:32:28;;;;;;;20.10;7.60;;;7.00;99.90;;;;;;5020846;28;20199;-75
2023/12/20 07:34:55;;;;;;;15.80;6.33;;;7.00;99.90;;;;;;5004068;28;20204;-75
2023/12/20 07:37:22;;;;;;;15.73;7.07;;;7.00;99.90;;;;;;4999864;28;20200;-75
2023/12/20 07:39:50;;;;;;;15.07;6.87;;;7.00;99.90;;;;;;5011982;28;20221;-76
2023/12/20 07:42:29;;;;;;;16.00;7.00;;;7.00;99.90;;;;;;4999507;28;20198;-76
2023/12/20 07:44:58;;;;;;;14.63;6.60;;;7.00;99.90;;;;;;5009759;28;20201;-75
2023/12/20 07:47:26;;;;;;;14.07;7.03;;;7.00;99.90;;;;;;5016866;28;20202;-76
2023/12/20 07:49:53;;;;;;;21.07;7.20;;;7.00;99.90;;;;;;5015209;28;20218;-76
2023/12/20 07:52:21;;;;;;;17.13;7.53;;;7.00;99.90;;;;;;5014129;28;20207;-76
2023/12/20 07:54:49;;;;;;;11.63;7.60;;;7.00;99.90;;;;;;5016588;28;20550;-75
2023/12/20 07:57:16;;;;;;;16.30;6.80;;;7.00;99.90;;;;;;5011051;28;20197;-75
2023/12/20 07:59:44;;;;;;;11.97;5.97;;;7.10;99.90;;;;;;5022343;28;20248;-78
2023/12/20 08:02:13;;;;;;;13.60;6.63;;;7.10;99.90;;;;;;5021419;28;20545;-77
2023/12/20 08:04:40;;;;;;;9.47;5.57;;;7.10;99.90;;;;;;5024908;28;20199;-77
2023/12/20 08:07:08;;;;;;;16.70;7.27;;;7.10;99.90;;;;;;5024693;28;20206;-75
2023/12/20 08:09:36;;;;;;;17.60;6.80;;;7.20;99.90;;;;;;5018789;28;20226;-74
2023/12/20 08:12:04;;;;;;;11.17;5.67;;;7.20;99.90;;;;;;5016111;28;20201;-75
2023/12/20 08:14:32;;;;;;;9.80;6.20;;;7.10;99.90;;;;;;5022978;28;20205;-75
2023/12/20 08:16:59;;;;;;;11.53;6.83;;;7.10;99.90;;;;;;5014969;28;20218;-75
2023/12/20 08:19:28;;;;;;;11.57;6.10;;;7.20;99.90;;;;;;5009602;28;20229;-76
2023/12/20 08:21:55;;;;;;;14.37;6.70;;;7.20;99.90;;;;;;5023188;28;20202;-76
2023/12/20 08:24:23;;;;;;;12.10;6.73;;;7.20;99.90;;;;;;5013100;28;20715;-75
2023/12/20 08:26:50;;;;;;;10.57;5.63;;;7.20;99.90;;;;;;5010871;28;20206;-76
2023/12/20 08:29:18;;;;;;;14.50;6.03;;;7.20;99.90;;;;;;5019601;28;20195;-78
2023/12/20 08:31:46;;;;;;;15.00;6.57;;;7.20;99.90;;;;;;5021997;28;20210;-76
2023/12/20 08:34:18;;;;;;;13.23;6.70;;;7.20;99.90;;;;;;5022301;28;20213;-77
2023/12/20 08:36:46;;;;;;;13.73;5.93;;;7.20;99.90;;;;;;5005931;28;20198;-76
2023/12/20 08:39:14;;;;;;;16.00;6.53;;;7.20;99.90;;;;;;5011873;28;20203;-76
2023/12/20 08:41:41;;;;;;;16.50;6.30;;;7.20;99.90;;;;;;5000399;28;20200;-76
2023/12/20 08:44:09;;;;;;;12.77;6.90;;;7.30;99.90;;;;;;5032129;28;20217;-76
2023/12/20 08:46:37;;;;;;;9.93;5.53;;;7.20;99.90;;;;;;5015251;28;20203;-77
2023/12/20 08:49:04;;;;;;;11.13;6.13;;;7.20;99.90;;;;;;5019997;28;20210;-76
2023/12/20 08:51:33;;;;;;;12.33;4.90;;;7.30;99.90;;;;;;5015151;28;20263;-76
2023/12/20 08:54:03;;;;;;;17.30;7.03;;;7.20;99.90;;;;;;5007386;28;20266;-76
2023/12/20 08:56:30;;;;;;;15.90;6.00;;;7.30;99.90;;;;;;5018205;28;20198;-76
2023/12/20 08:58:58;;;;;;;14.03;6.90;;;7.30;99.90;;;;;;5017196;28;20660;-76
2023/12/20 09:01:25;;;;;;;9.33;5.17;;;7.20;99.90;;;;;;5016116;28;20210;-77
2023/12/20 09:03:52;;;;;;;15.90;7.27;;;7.30;99.90;;;;;;5018864;28;20186;-76
2023/12/20 09:06:20;;;;;;;14.67;6.93;;;7.20;99.90;;;;;;5012459;28;20668;-76
2023/12/20 09:08:47;;;;;;;17.07;6.73;;;7.30;99.90;;;;;;5010382;28;20210;-76
2023/12/20 09:11:17;;;;;;;12.33;6.53;;;7.30;99.90;;;;;;5020150;28;20229;-76
2023/12/20 09:13:44;;;;;;;12.70;6.20;;;7.30;99.90;;;;;;5029253;28;20213;-76
2023/12/20 09:16:12;;;;;;;10.33;6.53;;;7.30;99.90;;;;;;5028209;28;20193;-76
2023/12/20 09:18:40;;;;;;;17.20;6.27;;;7.30;99.90;;;;;;5014793;28;20191;-77
2023/12/20 09:21:09;;;;;;;18.13;6.43;;;7.30;99.90;;;;;;5020743;28;20226;-76
2023/12/20 09:23:37;;;;;;;15.43;5.57;;;7.30;99.90;;;;;;5024480;28;20198;-77
2023/12/20 09:26:05;;;;;;;12.97;6.00;;;7.30;99.90;;;;;;5026180;28;20699;-76
2023/12/20 09:28:36;;;;;;;12.10;5.97;;;7.30;99.90;;;;;;5016100;28;20213;-76
2023/12/20 09:31:05;;;;;;;13.10;6.97;;;7.30;99.90;;;;;;5015245;28;20221;-76
2023/12/20 09:33:33;;;;;;;11.33;6.30;;;7.30;99.90;;;;;;5005060;28;20211;-76
2023/12/20 09:36:00;;;;;;;10.87;5.07;;;7.30;99.90;;;;;;5024484;28;20668;-76
2023/12/20 09:38:28;;;;;;;11.40;6.27;;;7.30;99.90;;;;;;5011396;28;20198;-76
2023/12/20 09:40:56;;;;;;;16.47;6.03;;;7.40;99.90;;;;;;5018884;28;20219;-76
2023/12/20 09:43:38;;;;;;;13.20;6.47;;;7.30;99.90;;;;;;5011573;28;20210;-76
2023/12/20 09:46:08;;;;;;;14.63;5.70;;;7.30;99.90;;;;;;5007699;28;20194;-76
2023/12/20 09:48:39;;;;;;;14.30;5.20;;;7.40;99.90;;;;;;5014107;28;20204;-76
2023/12/20 09:51:07;;;;;;;11.33;5.60;;;7.30;99.90;;;;;;5016811;28;20213;-76
2023/12/20 09:53:39;;;;;;;12.07;5.43;;;7.30;99.90;;;;;;5017234;28;20203;-76
2023/12/20 09:56:07;;;;;;;10.93;4.93;;;7.30;99.90;;;;;;5027275;28;20199;-76
2023/12/20 09:58:39;;;;;;;16.23;5.87;;;7.30;99.90;;;;;;5020430;28;20230;-77
2023/12/20 10:01:07;;;;;;;14.13;5.27;;;7.30;99.90;;;;;;5012641;28;20219;-76
2023/12/20 10:03:36;;;;;;;12.73;5.00;;;7.30;99.90;;;;;;5004910;28;20206;-76
2023/12/20 10:06:03;;;;;;;14.07;5.73;;;7.30;99.90;;;;;;5015552;28;20226;-76
2023/12/20 10:08:32;;;;;;;9.57;5.77;;;7.40;99.90;;;;;;5010378;28;20209;-76
2023/12/20 10:11:02;;;;;;;12.63;5.70;;;7.40;99.90;;;;;;5013169;28;20221;-76
2023/12/20 10:13:39;;;;;;;9.30;4.73;;;7.30;99.90;;;;;;5007032;28;20210;-76
2023/12/20 10:16:08;;;;;;;12.87;5.50;;;7.40;99.90;;;;;;5020718;28;20265;-76
2023/12/20 10:18:36;;;;;;;12.77;5.80;;;7.40;99.90;;;;;;5006416;28;20681;-76
2023/12/20 10:21:04;;;;;;;11.63;6.30;;;7.40;99.90;;;;;;5005713;28;20222;-75
2023/12/20 10:23:32;;;;;;;12.67;5.57;;;7.50;99.90;;;;;;5014298;28;20203;-76
2023/12/20 10:26:00;;;;;;;13.93;5.90;;;7.50;99.90;;;;;;5003430;28;20204;-76
2023/12/20 10:28:34;;;;;;;16.83;5.83;;;7.50;99.90;;;;;;5015268;28;20202;-76
2023/12/20 10:31:32;;;;;;;12.10;6.03;;;7.40;99.90;;;;;;5019570;28;20229;-76
2023/12/20 10:34:03;;;;;;;15.80;5.57;;;7.40;99.90;;;;;;5011466;28;20201;-76
2023/12/20 10:36:32;;;;;;;12.40;5.40;;;7.40;99.90;;;;;;4995156;28;20199;-76
2023/12/20 10:39:01;;;;;;;13.70;5.63;;;7.40;99.90;;;;;;5005476;28;20206;-76
2023/12/20 10:41:41;;;;;;;10.60;5.90;;;7.50;99.90;;;;;;5021699;28;20219;-76
2023/12/20 10:44:19;;;;;;;12.20;5.30;;;7.40;99.90;;;;;;4995904;28;20203;-76
2023/12/20 10:46:51;;;;;;;21.00;6.60;;;7.40;99.90;;;;;;5002366;28;20203;-76
2023/12/20 10:49:29;;;;;;;14.40;6.10;;;7.40;99.90;;;;;;5018104;28;20211;-76
2023/12/20 10:52:06;;;;;;;15.10;6.43;;;7.50;99.90;;;;;;5021106;28;20202;-76
2023/12/20 10:54:34;;;;;;;15.47;6.50;;;7.40;99.90;;;;;;5017914;28;20213;-76
2023/12/20 10:57:09;;;;;;;14.17;5.80;;;7.50;99.90;;;;;;5021952;28;20199;-76
2023/12/20 10:59:39;;;;;;;13.80;6.87;;;7.50;99.90;;;;;;5012867;28;20685;-76
2023/12/20 11:02:06;;;;;;;13.17;6.97;;;7.50;99.90;;;;;;5017412;28;20229;-75
2023/12/20 11:04:54;;;;;;;14.87;7.47;;;7.50;99.90;;;;;;5015795;28;20206;-76
2023/12/20 11:07:26;;;;;;;11.87;6.10;;;7.50;99.90;;;;;;5007374;28;20203;-76
2023/12/20 11:10:01;;;;;;;11.37;6.00;;;7.50;99.90;;;;;;5007438;28;20219;-76
2023/12/20 11:12:39;;;;;;;14.70;6.97;;;7.60;99.90;;;;;;5010671;28;20199;-75
2023/12/20 11:15:08;;;;;;;14.20;6.77;;;7.60;99.90;;;;;;4995735;28;20218;-75
2023/12/20 11:17:39;;;;;;;15.33;7.17;;;8.40;99.90;;;;;;5006856;28;20215;-77
2023/12/20 11:20:12;;;;;;;13.03;6.07;;;8.10;99.90;;;;;;5028581;28;20688;-75
2023/12/20 11:22:41;;;;;;;13.13;6.30;;;7.80;99.90;;;;;;5020121;28;20207;-75
2023/12/20 11:25:10;;;;;;;18.00;7.13;;;8.20;99.90;;;;;;5009629;28;20206;-77
2023/12/20 11:27:42;;;;;;;13.50;6.50;;;8.20;99.90;;;;;;5020324;28;20203;-76
2023/12/20 11:30:10;;;;;;;17.17;7.00;;;7.90;99.90;;;;;;5017738;28;20223;-76
2023/12/20 11:32:38;;;;;;;13.17;7.23;;;7.80;99.90;;;;;;4994405;28;20214;-76
2023/12/20 11:35:31;;;;;;;17.77;7.43;;;7.80;99.90;;;;;;5016281;28;20653;-76
2023/12/20 11:37:59;;;;;;;15.80;7.27;;;7.70;99.90;;;;;;5017786;28;20196;-76
2023/12/20 11:40:27;;;;;;;11.60;6.80;;;7.90;99.90;;;;;;5011434;28;20223;-77
2023/12/20 11:42:54;;;;;;;15.57;7.03;;;7.80;99.90;;;;;;5008597;28;20222;-76
2023/12/20 11:45:24;;;;;;;20.47;7.20;;;7.70;99.90;;;;;;5007645;28;20207;-77
2023/12/20 11:47:53;;;;;;;15.23;7.40;;;7.70;99.90;;;;;;4998116;28;20207;-77
2023/12/20 11:50:22;;;;;;;16.00;6.73;;;7.60;99.90;;;;;;5006894;28;20222;-76
2023/12/20 11:52:53;;;;;;;16.27;6.50;;;7.60;99.90;;;;;;5011304;28;20198;-77
2023/12/20 11:55:20;;;;;;;12.43;6.73;;;7.60;99.90;;;;;;5020237;28;20226;-76
2023/12/20 11:57:48;;;;;;;13.27;7.10;;;7.60;99.90;;;;;;5012250;28;20203;-76
2023/12/20 12:00:16;;;;;;;13.73;7.43;;;7.50;99.90;;;;;;5007591;28;20701;-76
2023/12/20 12:02:44;;;;;;;16.73;8.13;;;7.60;99.90;;;;;;5017752;28;20222;-76
2023/12/20 12:05:11;;;;;;;18.90;7.37;;;7.70;99.90;;;;;;5016201;28;20203;-76
2023/12/20 12:07:39;;;;;;;12.03;5.87;;;7.60;99.90;;;;;;5021580;28;20202;-76
2023/12/20 12:10:08;;;;;;;15.87;6.23;;;7.60;99.90;;;;;;5014874;28;20217;-76
2023/12/20 12:12:36;;;;;;;14.47;7.20;;;7.60;99.90;;;;;;5011445;28;20196;-76
2023/12/20 12:15:05;;;;;;;14.03;7.00;;;7.60;99.90;;;;;;5003105;28;20206;-76
2023/12/20 12:17:33;;;;;;;10.80;6.83;;;7.60;99.90;;;;;;5010590;28;20203;-76
2023/12/20 12:20:05;;;;;;;11.20;6.30;;;7.60;99.90;;;;;;5022950;28;20677;-76
2023/12/20 12:22:32;;;;;;;12.37;6.83;;;7.50;99.90;;;;;;5018435;28;20216;-76
2023/12/20 12:25:09;;;;;;;13.07;6.53;;;7.50;99.90;;;;;;5013509;28;20207;-77
2023/12/20 12:27:40;;;;;;;8.47;5.73;;;7.50;99.90;;;;;;4996002;28;20671;-76
2023/12/20 12:30:09;;;;;;;11.53;7.23;;;7.50;99.90;;;;;;5014674;28;20222;-76
2023/12/20 12:32:37;;;;;;;13.93;7.47;;;7.40;99.90;;;;;;4998108;28;20222;-77
2023/12/20 12:35:06;;;;;;;12.67;7.07;;;7.40;99.90;;;;;;5022110;28;20194;-76
2023/12/20 12:37:36;;;;;;;14.47;6.53;;;7.50;99.90;;;;;;5013904;28;20199;-77
2023/12/20 12:40:06;;;;;;;17.20;8.30;;;7.40;99.90;;;;;;5022007;28;20218;-76
2023/12/20 12:42:33;;;;;;;16.33;7.03;;;7.50;99.90;;;;;;5020813;28;20585;-77
2023/12/20 12:45:02;;;;;;;14.57;7.33;;;7.50;99.90;;;;;;5002002;28;20574;-77
2023/12/20 12:47:29;;;;;;;14.40;7.07;;;7.50;99.90;;;;;;5018572;28;20203;-77
2023/12/20 12:49:57;;;;;;;14.90;7.73;;;7.50;99.90;;;;;;5022296;28;20716;-77
2023/12/20 12:52:26;;;;;;;16.07;7.37;;;7.50;99.90;;;;;;5019190;28;20680;-77
2023/12/20 12:54:54;;;;;;;17.50;7.70;;;7.50;99.90;;;;;;5012846;28;20205;-77
2023/12/20 12:57:21;;;;;;;14.10;7.83;;;7.50;99.90;;;;;;5013945;28;20203;-76
2023/12/20 12:59:49;;;;;;;22.53;8.77;;;7.60;99.90;;;;;;5003352;28;20227;-76
2023/12/20 13:02:18;;;;;;;19.50;8.13;;;7.60;99.90;;;;;;5001016;28;20238;-77
2023/12/20 13:04:46;;;;;;;13.73;7.30;;;7.60;99.90;;;;;;4998899;28;20760;-77